Rosewell, United Kingdom
Current Conditions -  °F | °C
As of 10:20 AM on Monday 20 Oct 2014 (Local Time) from EGPH Reporting Station
Rain Showers Rain Showers  
Wind Chill: 52°   Ceiling: 4000
Heat Index: 52°   Visibility: 6mi
Dew Point: 48°   Wind: 14mph
Humidity: 88%   Direction: 240°WSW
Pressure: 29.74"   Gusts: NA
Location:  55.85°N, 3.14°W
Report Text: EGPH 200920Z 24012KT 9999 6000W VCSH FEW012 BKN040 11/09 Q1007
Loading
Personal Weather Stations






























Interactive Weather Map
Tropical Storm Tracking
New forecast layout! Learn more

10-Day Weather Forecast

Advertisements
Track Severe Weather on mobile